sensor_id;sensor_type;location;lat;lon;timestamp;temperature;humidity
17415;DHT22;8825;48.086;16.426;2023-05-07T00:02:07;15.90;78.20
17415;DHT22;8825;48.086;16.426;2023-05-07T00:07:56;15.90;78.10
17415;DHT22;8825;48.086;16.426;2023-05-07T00:10:25;15.80;78.00
17415;DHT22;8825;48.086;16.426;2023-05-07T00:15:57;15.80;78.00
17415;DHT22;8825;48.086;16.426;2023-05-07T00:21:47;15.70;78.10
17415;DHT22;8825;48.086;16.426;2023-05-07T00:27:36;15.70;78.20
17415;DHT22;8825;48.086;16.426;2023-05-07T00:30:05;15.60;78.10
17415;DHT22;8825;48.086;16.426;2023-05-07T00:32:33;15.60;78.20
17415;DHT22;8825;48.086;16.426;2023-05-07T00:38:23;15.50;78.00
17415;DHT22;8825;48.086;16.426;2023-05-07T00:40:51;15.40;77.80
17415;DHT22;8825;48.086;16.426;2023-05-07T00:46:41;15.30;77.60
17415;DHT22;8825;48.086;16.426;2023-05-07T00:52:31;15.00;77.80
17415;DHT22;8825;48.086;16.426;2023-05-07T00:58:21;14.90;78.00
17415;DHT22;8825;48.086;16.426;2023-05-07T01:00:49;14.80;77.90
17415;DHT22;8825;48.086;16.426;2023-05-07T01:03:17;14.80;78.20
17415;DHT22;8825;48.086;16.426;2023-05-07T01:05:46;14.80;78.10
17415;DHT22;8825;48.086;16.426;2023-05-07T01:08:16;14.70;78.10
17415;DHT22;8825;48.086;16.426;2023-05-07T01:10:44;14.70;78.00
17415;DHT22;8825;48.086;16.426;2023-05-07T01:13:13;14.80;78.10
17415;DHT22;8825;48.086;16.426;2023-05-07T01:19:04;14.70;78.20
17415;DHT22;8825;48.086;16.426;2023-05-07T01:21:33;14.70;78.20
17415;DHT22;8825;48.086;16.426;2023-05-07T01:27:26;14.50;78.30
17415;DHT22;8825;48.086;16.426;2023-05-07T01:33:18;14.30;78.50
17415;DHT22;8825;48.086;16.426;2023-05-07T01:35:48;14.20;79.60
17415;DHT22;8825;48.086;16.426;2023-05-07T01:38:17;14.20;79.00
17415;DHT22;8825;48.086;16.426;2023-05-07T01:40:45;14.20;79.00
17415;DHT22;8825;48.086;16.426;2023-05-07T01:43:14;14.20;79.20
17415;DHT22;8825;48.086;16.426;2023-05-07T01:49:04;14.20;79.20
17415;DHT22;8825;48.086;16.426;2023-05-07T01:51:34;14.20;79.00
17415;DHT22;8825;48.086;16.426;2023-05-07T01:54:02;14.20;79.00
17415;DHT22;8825;48.086;16.426;2023-05-07T01:56:30;14.20;79.10
17415;DHT22;8825;48.086;16.426;2023-05-07T01:58:58;14.20;79.20
17415;DHT22;8825;48.086;16.426;2023-05-07T02:01:26;14.20;79.20
17415;DHT22;8825;48.086;16.426;2023-05-07T02:03:54;14.20;79.20
17415;DHT22;8825;48.086;16.426;2023-05-07T02:06:21;14.20;79.20
17415;DHT22;8825;48.086;16.426;2023-05-07T02:08:49;14.20;79.10
17415;DHT22;8825;48.086;16.426;2023-05-07T02:11:17;14.20;79.20
17415;DHT22;8825;48.086;16.426;2023-05-07T02:13:45;14.20;79.20
17415;DHT22;8825;48.086;16.426;2023-05-07T02:16:13;14.20;79.00
17415;DHT22;8825;48.086;16.426;2023-05-07T02:22:02;14.20;79.20
17415;DHT22;8825;48.086;16.426;2023-05-07T02:27:52;14.10;79.00
17415;DHT22;8825;48.086;16.426;2023-05-07T02:33:42;14.20;78.80
17415;DHT22;8825;48.086;16.426;2023-05-07T02:39:51;14.10;78.50
17415;DHT22;8825;48.086;16.426;2023-05-07T02:42:19;14.00;78.00
17415;DHT22;8825;48.086;16.426;2023-05-07T02:48:08;14.00;78.60
17415;DHT22;8825;48.086;16.426;2023-05-07T02:53:59;14.00;78.60
17415;DHT22;8825;48.086;16.426;2023-05-07T02:59:49;14.00;78.50
17415;DHT22;8825;48.086;16.426;2023-05-07T03:02:17;14.00;78.40
17415;DHT22;8825;48.086;16.426;2023-05-07T03:08:07;14.00;78.50
17415;DHT22;8825;48.086;16.426;2023-05-07T03:13:57;14.00;78.40
17415;DHT22;8825;48.086;16.426;2023-05-07T03:19:23;14.00;78.50
17415;DHT22;8825;48.086;16.426;2023-05-07T03:25:13;13.90;78.70
17415;DHT22;8825;48.086;16.426;2023-05-07T03:27:41;13.90;78.80
17415;DHT22;8825;48.086;16.426;2023-05-07T03:33:35;13.90;79.00
17415;DHT22;8825;48.086;16.426;2023-05-07T03:39:26;14.00;79.40
17415;DHT22;8825;48.086;16.426;2023-05-07T03:49:00;14.00;79.90
17415;DHT22;8825;48.086;16.426;2023-05-07T03:54:50;14.10;80.20
17415;DHT22;8825;48.086;16.426;2023-05-07T03:57:18;14.20;80.20
17415;DHT22;8825;48.086;16.426;2023-05-07T03:59:46;14.20;80.90
17415;DHT22;8825;48.086;16.426;2023-05-07T04:02:14;14.20;80.30
17415;DHT22;8825;48.086;16.426;2023-05-07T04:04:42;14.20;80.30
17415;DHT22;8825;48.086;16.426;2023-05-07T04:10:32;14.30;80.50
17415;DHT22;8825;48.086;16.426;2023-05-07T04:12:59;14.40;80.30
17415;DHT22;8825;48.086;16.426;2023-05-07T04:18:25;14.50;80.40
17415;DHT22;8825;48.086;16.426;2023-05-07T04:24:15;14.50;80.30
17415;DHT22;8825;48.086;16.426;2023-05-07T04:32:54;14.70;80.50
17415;DHT22;8825;48.086;16.426;2023-05-07T04:35:22;14.80;80.60
17415;DHT22;8825;48.086;16.426;2023-05-07T04:37:50;14.80;80.60
17415;DHT22;8825;48.086;16.426;2023-05-07T04:40:18;14.80;80.70
17415;DHT22;8825;48.086;16.426;2023-05-07T04:42:46;14.90;80.60
17415;DHT22;8825;48.086;16.426;2023-05-07T04:45:14;14.90;80.50
17415;DHT22;8825;48.086;16.426;2023-05-07T04:47:42;15.00;80.50
17415;DHT22;8825;48.086;16.426;2023-05-07T04:50:10;15.00;80.40
17415;DHT22;8825;48.086;16.426;2023-05-07T04:56:00;15.10;80.30
17415;DHT22;8825;48.086;16.426;2023-05-07T04:58:28;15.20;80.30
17415;DHT22;8825;48.086;16.426;2023-05-07T05:04:19;15.40;80.40
17415;DHT22;8825;48.086;16.426;2023-05-07T05:10:10;15.50;80.30
17415;DHT22;8825;48.086;16.426;2023-05-07T05:12:38;15.60;80.20
17415;DHT22;8825;48.086;16.426;2023-05-07T05:15:06;15.70;80.20
17415;DHT22;8825;48.086;16.426;2023-05-07T05:20:32;15.90;80.10
17415;DHT22;8825;48.086;16.426;2023-05-07T05:26:21;16.00;79.80
17415;DHT22;8825;48.086;16.426;2023-05-07T05:28:49;16.10;79.60
17415;DHT22;8825;48.086;16.426;2023-05-07T05:31:17;16.20;79.60
17415;DHT22;8825;48.086;16.426;2023-05-07T05:33:45;16.30;79.50
17415;DHT22;8825;48.086;16.426;2023-05-07T05:39:36;16.40;79.10
17415;DHT22;8825;48.086;16.426;2023-05-07T05:45:26;16.50;78.50
17415;DHT22;8825;48.086;16.426;2023-05-07T05:51:16;16.60;78.10
17415;DHT22;8825;48.086;16.426;2023-05-07T05:53:44;16.70;77.80
17415;DHT22;8825;48.086;16.426;2023-05-07T05:59:34;16.70;77.30
17415;DHT22;8825;48.086;16.426;2023-05-07T06:05:24;16.70;77.20
17415;DHT22;8825;48.086;16.426;2023-05-07T06:11:14;16.70;77.20
17415;DHT22;8825;48.086;16.426;2023-05-07T06:17:04;16.70;76.90
17415;DHT22;8825;48.086;16.426;2023-05-07T06:19:31;16.70;76.80
17415;DHT22;8825;48.086;16.426;2023-05-07T06:25:22;16.80;76.00
17415;DHT22;8825;48.086;16.426;2023-05-07T06:31:16;16.80;75.40
17415;DHT22;8825;48.086;16.426;2023-05-07T06:37:08;16.80;74.70
17415;DHT22;8825;48.086;16.426;2023-05-07T06:39:36;16.80;74.60
17415;DHT22;8825;48.086;16.426;2023-05-07T06:45:26;17.00;74.40
17415;DHT22;8825;48.086;16.426;2023-05-07T06:51:16;17.20;73.90
17415;DHT22;8825;48.086;16.426;2023-05-07T06:57:06;17.40;73.40
17415;DHT22;8825;48.086;16.426;2023-05-07T06:59:34;17.50;73.20
17415;DHT22;8825;48.086;16.426;2023-05-07T07:02:02;17.50;72.90
17415;DHT22;8825;48.086;16.426;2023-05-07T07:04:30;17.60;72.50
17415;DHT22;8825;48.086;16.426;2023-05-07T07:06:58;17.60;72.10
17415;DHT22;8825;48.086;16.426;2023-05-07T07:09:25;17.70;71.70
17415;DHT22;8825;48.086;16.426;2023-05-07T07:11:53;17.80;71.30
17415;DHT22;8825;48.086;16.426;2023-05-07T07:14:21;17.80;71.00
17415;DHT22;8825;48.086;16.426;2023-05-07T07:16:49;17.80;70.80
17415;DHT22;8825;48.086;16.426;2023-05-07T07:19:18;17.90;70.00
17415;DHT22;8825;48.086;16.426;2023-05-07T07:21:47;17.80;69.50
17415;DHT22;8825;48.086;16.426;2023-05-07T07:27:37;17.80;69.50
17415;DHT22;8825;48.086;16.426;2023-05-07T07:30:09;17.80;69.10
17415;DHT22;8825;48.086;16.426;2023-05-07T07:32:37;17.90;69.40
17415;DHT22;8825;48.086;16.426;2023-05-07T07:35:07;17.90;69.40
17415;DHT22;8825;48.086;16.426;2023-05-07T07:37:37;18.00;68.90
17415;DHT22;8825;48.086;16.426;2023-05-07T07:40:06;18.10;68.60
17415;DHT22;8825;48.086;16.426;2023-05-07T07:42:36;18.10;68.10
17415;DHT22;8825;48.086;16.426;2023-05-07T07:45:05;18.20;67.70
17415;DHT22;8825;48.086;16.426;2023-05-07T07:54:19;18.40;65.90
17415;DHT22;8825;48.086;16.426;2023-05-07T07:56:49;18.50;65.80
17415;DHT22;8825;48.086;16.426;2023-05-07T08:02:59;18.60;65.80
17415;DHT22;8825;48.086;16.426;2023-05-07T08:08:52;18.80;64.40
17415;DHT22;8825;48.086;16.426;2023-05-07T08:11:23;18.90;64.70
17415;DHT22;8825;48.086;16.426;2023-05-07T08:17:14;19.10;65.70
17415;DHT22;8825;48.086;16.426;2023-05-07T08:22:41;19.10;63.60
17415;DHT22;8825;48.086;16.426;2023-05-07T08:28:31;18.90;62.20
17415;DHT22;8825;48.086;16.426;2023-05-07T08:31:00;18.90;61.90
17415;DHT22;8825;48.086;16.426;2023-05-07T08:33:29;18.90;61.80
17415;DHT22;8825;48.086;16.426;2023-05-07T08:35:57;19.00;61.90
17415;DHT22;8825;48.086;16.426;2023-05-07T08:38:26;19.00;62.00
17415;DHT22;8825;48.086;16.426;2023-05-07T08:40:55;19.10;61.80
17415;DHT22;8825;48.086;16.426;2023-05-07T08:43:26;19.10;62.20
17415;DHT22;8825;48.086;16.426;2023-05-07T08:45:57;19.20;62.50
17415;DHT22;8825;48.086;16.426;2023-05-07T08:48:28;19.30;62.90
17415;DHT22;8825;48.086;16.426;2023-05-07T08:54:21;19.60;62.30
17415;DHT22;8825;48.086;16.426;2023-05-07T09:00:12;20.00;61.80
17415;DHT22;8825;48.086;16.426;2023-05-07T09:06:03;20.50;60.20
17415;DHT22;8825;48.086;16.426;2023-05-07T09:08:33;21.00;58.90
17415;DHT22;8825;48.086;16.426;2023-05-07T09:14:23;22.00;56.70
17415;DHT22;8825;48.086;16.426;2023-05-07T09:20:13;22.10;54.20
17415;DHT22;8825;48.086;16.426;2023-05-07T09:22:41;22.20;54.50
17415;DHT22;8825;48.086;16.426;2023-05-07T09:28:32;22.80;52.40
17415;DHT22;8825;48.086;16.426;2023-05-07T09:34:22;23.50;50.90
17415;DHT22;8825;48.086;16.426;2023-05-07T09:40:23;24.00;49.10
17415;DHT22;8825;48.086;16.426;2023-05-07T09:42:51;24.20;48.10
17415;DHT22;8825;48.086;16.426;2023-05-07T09:48:42;24.50;45.90
17415;DHT22;8825;48.086;16.426;2023-05-07T09:54:33;25.20;45.60
17415;DHT22;8825;48.086;16.426;2023-05-07T10:00:24;25.20;44.50
17415;DHT22;8825;48.086;16.426;2023-05-07T10:09:39;25.70;43.70
17415;DHT22;8825;48.086;16.426;2023-05-07T10:15:31;26.10;43.30
17415;DHT22;8825;48.086;16.426;2023-05-07T10:18:00;26.40;42.70
17415;DHT22;8825;48.086;16.426;2023-05-07T10:20:28;26.60;42.60
17415;DHT22;8825;48.086;16.426;2023-05-07T10:22:57;26.70;42.00
17415;DHT22;8825;48.086;16.426;2023-05-07T10:28:50;26.70;41.10
17415;DHT22;8825;48.086;16.426;2023-05-07T10:34:43;26.90;41.20
17415;DHT22;8825;48.086;16.426;2023-05-07T10:40:34;26.60;40.50
17415;DHT22;8825;48.086;16.426;2023-05-07T10:46:24;25.90;41.30
17415;DHT22;8825;48.086;16.426;2023-05-07T10:54:38;25.40;42.70
17415;DHT22;8825;48.086;16.426;2023-05-07T11:06:21;24.80;44.10
17415;DHT22;8825;48.086;16.426;2023-05-07T11:08:56;24.80;43.80
17415;DHT22;8825;48.086;16.426;2023-05-07T11:11:48;24.70;43.80
17415;DHT22;8825;48.086;16.426;2023-05-07T11:20:52;24.30;43.80
17415;DHT22;8825;48.086;16.426;2023-05-07T11:26:49;24.20;44.20
17415;DHT22;8825;48.086;16.426;2023-05-07T11:29:20;24.20;44.00
17415;DHT22;8825;48.086;16.426;2023-05-07T11:31:52;24.20;44.80
17415;DHT22;8825;48.086;16.426;2023-05-07T11:34:25;24.10;44.00
17415;DHT22;8825;48.086;16.426;2023-05-07T11:36:53;24.10;43.90
17415;DHT22;8825;48.086;16.426;2023-05-07T11:39:26;24.00;44.60
17415;DHT22;8825;48.086;16.426;2023-05-07T11:41:54;23.90;44.90
17415;DHT22;8825;48.086;16.426;2023-05-07T11:44:22;23.80;44.90
17415;DHT22;8825;48.086;16.426;2023-05-07T11:46:50;23.70;45.50
17415;DHT22;8825;48.086;16.426;2023-05-07T11:52:40;23.60;45.00
17415;DHT22;8825;48.086;16.426;2023-05-07T11:55:09;23.30;45.20
17415;DHT22;8825;48.086;16.426;2023-05-07T11:57:37;23.10;45.60
17415;DHT22;8825;48.086;16.426;2023-05-07T12:00:06;23.10;46.10
17415;DHT22;8825;48.086;16.426;2023-05-07T12:02:34;23.20;46.30
17415;DHT22;8825;48.086;16.426;2023-05-07T12:05:02;23.30;46.50
17415;DHT22;8825;48.086;16.426;2023-05-07T12:07:29;23.40;46.50
17415;DHT22;8825;48.086;16.426;2023-05-07T12:09:58;23.50;46.20
17415;DHT22;8825;48.086;16.426;2023-05-07T12:15:52;23.50;45.30
17415;DHT22;8825;48.086;16.426;2023-05-07T12:21:43;23.70;45.70
17415;DHT22;8825;48.086;16.426;2023-05-07T12:27:36;24.00;45.50
17415;DHT22;8825;48.086;16.426;2023-05-07T12:33:25;23.80;44.80
17415;DHT22;8825;48.086;16.426;2023-05-07T12:35:56;23.70;45.00
17415;DHT22;8825;48.086;16.426;2023-05-07T12:38:23;23.60;45.10
17415;DHT22;8825;48.086;16.426;2023-05-07T12:40:55;23.50;45.20
17415;DHT22;8825;48.086;16.426;2023-05-07T12:43:27;23.50;45.40
17415;DHT22;8825;48.086;16.426;2023-05-07T12:45:57;23.50;44.60
17415;DHT22;8825;48.086;16.426;2023-05-07T12:48:26;23.30;44.80
17415;DHT22;8825;48.086;16.426;2023-05-07T12:50:54;23.10;45.30
17415;DHT22;8825;48.086;16.426;2023-05-07T12:53:24;22.90;45.80
17415;DHT22;8825;48.086;16.426;2023-05-07T12:55:55;22.80;46.20
17415;DHT22;8825;48.086;16.426;2023-05-07T12:58:32;22.60;46.40
17415;DHT22;8825;48.086;16.426;2023-05-07T13:01:01;22.50;46.60
17415;DHT22;8825;48.086;16.426;2023-05-07T13:10:00;22.50;47.30
17415;DHT22;8825;48.086;16.426;2023-05-07T13:12:28;22.40;47.50
17415;DHT22;8825;48.086;16.426;2023-05-07T13:18:18;22.40;47.50
17415;DHT22;8825;48.086;16.426;2023-05-07T13:24:08;22.30;47.90
17415;DHT22;8825;48.086;16.426;2023-05-07T13:26:36;22.30;47.70
17415;DHT22;8825;48.086;16.426;2023-05-07T13:29:04;22.20;47.50
17415;DHT22;8825;48.086;16.426;2023-05-07T13:34:54;22.10;47.40
17415;DHT22;8825;48.086;16.426;2023-05-07T13:37:22;22.20;47.40
17415;DHT22;8825;48.086;16.426;2023-05-07T13:43:11;22.30;47.30
17415;DHT22;8825;48.086;16.426;2023-05-07T13:49:02;22.50;46.70
17415;DHT22;8825;48.086;16.426;2023-05-07T13:54:51;22.60;46.40
17415;DHT22;8825;48.086;16.426;2023-05-07T13:57:19;22.60;46.20
17415;DHT22;8825;48.086;16.426;2023-05-07T13:59:47;22.60;46.10
17415;DHT22;8825;48.086;16.426;2023-05-07T14:02:15;22.60;46.40
17415;DHT22;8825;48.086;16.426;2023-05-07T14:04:43;22.70;46.10
17415;DHT22;8825;48.086;16.426;2023-05-07T14:07:11;22.70;46.50
17415;DHT22;8825;48.086;16.426;2023-05-07T14:09:39;22.60;46.50
17415;DHT22;8825;48.086;16.426;2023-05-07T14:15:29;22.50;46.10
17415;DHT22;8825;48.086;16.426;2023-05-07T14:17:59;22.40;45.90
17415;DHT22;8825;48.086;16.426;2023-05-07T14:23:49;22.30;46.00
17415;DHT22;8825;48.086;16.426;2023-05-07T14:29:39;22.10;46.50
17415;DHT22;8825;48.086;16.426;2023-05-07T14:35:29;22.10;46.70
17415;DHT22;8825;48.086;16.426;2023-05-07T14:37:57;22.00;46.70
17415;DHT22;8825;48.086;16.426;2023-05-07T14:40:25;21.90;46.70
17415;DHT22;8825;48.086;16.426;2023-05-07T14:42:53;21.90;46.90
17415;DHT22;8825;48.086;16.426;2023-05-07T14:45:21;21.90;47.00
17415;DHT22;8825;48.086;16.426;2023-05-07T14:47:51;21.90;47.00
17415;DHT22;8825;48.086;16.426;2023-05-07T14:50:20;21.80;46.80
17415;DHT22;8825;48.086;16.426;2023-05-07T14:52:54;21.80;47.90
17415;DHT22;8825;48.086;16.426;2023-05-07T14:55:28;21.70;47.40
17415;DHT22;8825;48.086;16.426;2023-05-07T14:58:14;21.60;47.30
17415;DHT22;8825;48.086;16.426;2023-05-07T15:00:41;21.50;47.40
17415;DHT22;8825;48.086;16.426;2023-05-07T15:03:10;21.40;46.80
17415;DHT22;8825;48.086;16.426;2023-05-07T15:05:38;21.30;47.40
17415;DHT22;8825;48.086;16.426;2023-05-07T15:08:06;21.20;47.50
17415;DHT22;8825;48.086;16.426;2023-05-07T15:10:35;21.10;47.50
17415;DHT22;8825;48.086;16.426;2023-05-07T15:13:05;21.00;47.70
17415;DHT22;8825;48.086;16.426;2023-05-07T15:15:33;21.00;48.00
17415;DHT22;8825;48.086;16.426;2023-05-07T15:21:42;20.90;48.30
17415;DHT22;8825;48.086;16.426;2023-05-07T15:24:10;20.80;48.20
17415;DHT22;8825;48.086;16.426;2023-05-07T15:30:00;20.80;48.50
17415;DHT22;8825;48.086;16.426;2023-05-07T15:35:49;20.70;48.20
17415;DHT22;8825;48.086;16.426;2023-05-07T15:41:39;20.50;48.50
17415;DHT22;8825;48.086;16.426;2023-05-07T15:44:07;20.50;48.50
17415;DHT22;8825;48.086;16.426;2023-05-07T15:46:35;20.40;48.80
17415;DHT22;8825;48.086;16.426;2023-05-07T15:49:03;20.40;49.00
17415;DHT22;8825;48.086;16.426;2023-05-07T15:51:33;20.40;48.80
17415;DHT22;8825;48.086;16.426;2023-05-07T15:54:00;20.30;48.50
17415;DHT22;8825;48.086;16.426;2023-05-07T15:56:28;20.30;48.70
17415;DHT22;8825;48.086;16.426;2023-05-07T16:02:19;20.20;49.20
17415;DHT22;8825;48.086;16.426;2023-05-07T16:04:47;20.10;49.40
17415;DHT22;8825;48.086;16.426;2023-05-07T16:07:15;20.10;49.40
17415;DHT22;8825;48.086;16.426;2023-05-07T16:09:42;20.00;49.30
17415;DHT22;8825;48.086;16.426;2023-05-07T16:12:10;19.90;49.10
17415;DHT22;8825;48.086;16.426;2023-05-07T16:14:38;19.90;49.20
17415;DHT22;8825;48.086;16.426;2023-05-07T16:17:06;19.80;49.30
17415;DHT22;8825;48.086;16.426;2023-05-07T16:32:09;19.40;50.00
17415;DHT22;8825;48.086;16.426;2023-05-07T16:37:59;19.20;49.70
17415;DHT22;8825;48.086;16.426;2023-05-07T16:40:27;19.00;49.80
17415;DHT22;8825;48.086;16.426;2023-05-07T16:42:54;19.00;50.10
17415;DHT22;8825;48.086;16.426;2023-05-07T16:48:25;18.80;50.20
17415;DHT22;8825;48.086;16.426;2023-05-07T16:50:53;18.70;50.10
17415;DHT22;8825;48.086;16.426;2023-05-07T16:53:21;18.50;50.10
17415;DHT22;8825;48.086;16.426;2023-05-07T16:55:48;18.50;50.30
17415;DHT22;8825;48.086;16.426;2023-05-07T16:58:16;18.40;50.60
17415;DHT22;8825;48.086;16.426;2023-05-07T17:00:43;18.30;50.60
17415;DHT22;8825;48.086;16.426;2023-05-07T17:03:11;18.20;50.80
17415;DHT22;8825;48.086;16.426;2023-05-07T17:05:39;18.10;51.00
17415;DHT22;8825;48.086;16.426;2023-05-07T17:08:06;18.00;50.90
17415;DHT22;8825;48.086;16.426;2023-05-07T17:10:34;18.00;51.00
17415;DHT22;8825;48.086;16.426;2023-05-07T17:13:01;17.90;50.70
17415;DHT22;8825;48.086;16.426;2023-05-07T17:15:29;17.70;50.80
17415;DHT22;8825;48.086;16.426;2023-05-07T17:17:56;17.60;51.20
17415;DHT22;8825;48.086;16.426;2023-05-07T17:20:24;17.50;51.40
17415;DHT22;8825;48.086;16.426;2023-05-07T17:22:52;17.40;51.40
17415;DHT22;8825;48.086;16.426;2023-05-07T17:25:22;17.40;51.60
17415;DHT22;8825;48.086;16.426;2023-05-07T17:27:49;17.30;51.80
17415;DHT22;8825;48.086;16.426;2023-05-07T17:30:17;17.20;51.70
17415;DHT22;8825;48.086;16.426;2023-05-07T17:32:44;17.20;52.00
17415;DHT22;8825;48.086;16.426;2023-05-07T17:35:12;17.10;52.00
17415;DHT22;8825;48.086;16.426;2023-05-07T17:37:39;17.00;52.10
17415;DHT22;8825;48.086;16.426;2023-05-07T17:40:09;16.90;52.10
17415;DHT22;8825;48.086;16.426;2023-05-07T17:42:36;16.80;52.00
17415;DHT22;8825;48.086;16.426;2023-05-07T17:45:04;16.70;52.30
17415;DHT22;8825;48.086;16.426;2023-05-07T17:47:32;16.60;52.60
17415;DHT22;8825;48.086;16.426;2023-05-07T17:50:01;16.50;52.80
17415;DHT22;8825;48.086;16.426;2023-05-07T17:52:30;16.50;52.90
17415;DHT22;8825;48.086;16.426;2023-05-07T17:54:57;16.40;53.00
17415;DHT22;8825;48.086;16.426;2023-05-07T17:57:25;16.30;53.10
17415;DHT22;8825;48.086;16.426;2023-05-07T17:59:53;16.30;53.30
17415;DHT22;8825;48.086;16.426;2023-05-07T18:02:21;16.20;53.50
17415;DHT22;8825;48.086;16.426;2023-05-07T18:04:48;16.00;53.60
17415;DHT22;8825;48.086;16.426;2023-05-07T18:07:16;15.90;53.70
17415;DHT22;8825;48.086;16.426;2023-05-07T18:09:43;15.70;53.90
17415;DHT22;8825;48.086;16.426;2023-05-07T18:12:11;15.60;54.20
17415;DHT22;8825;48.086;16.426;2023-05-07T18:14:38;15.50;54.40
17415;DHT22;8825;48.086;16.426;2023-05-07T18:17:06;15.40;54.60
17415;DHT22;8825;48.086;16.426;2023-05-07T18:19:33;15.30;54.80
17415;DHT22;8825;48.086;16.426;2023-05-07T18:22:02;15.20;54.80
17415;DHT22;8825;48.086;16.426;2023-05-07T18:24:29;15.10;54.90
17415;DHT22;8825;48.086;16.426;2023-05-07T18:26:57;15.00;55.00
17415;DHT22;8825;48.086;16.426;2023-05-07T18:29:24;15.00;55.20
17415;DHT22;8825;48.086;16.426;2023-05-07T18:31:52;14.90;55.40
17415;DHT22;8825;48.086;16.426;2023-05-07T18:34:19;14.80;55.60
17415;DHT22;8825;48.086;16.426;2023-05-07T18:36:47;14.70;55.70
17415;DHT22;8825;48.086;16.426;2023-05-07T18:39:14;14.60;56.20
17415;DHT22;8825;48.086;16.426;2023-05-07T18:41:42;14.50;56.10
17415;DHT22;8825;48.086;16.426;2023-05-07T18:44:11;14.50;56.30
17415;DHT22;8825;48.086;16.426;2023-05-07T18:46:38;14.40;56.50
17415;DHT22;8825;48.086;16.426;2023-05-07T18:49:06;14.40;56.60
17415;DHT22;8825;48.086;16.426;2023-05-07T18:51:34;14.30;56.60
17415;DHT22;8825;48.086;16.426;2023-05-07T18:54:01;14.30;56.80
17415;DHT22;8825;48.086;16.426;2023-05-07T18:56:29;14.30;56.80
17415;DHT22;8825;48.086;16.426;2023-05-07T18:58:56;14.20;56.90
17415;DHT22;8825;48.086;16.426;2023-05-07T19:01:24;14.20;57.00
17415;DHT22;8825;48.086;16.426;2023-05-07T19:03:51;14.10;56.90
17415;DHT22;8825;48.086;16.426;2023-05-07T19:06:19;14.10;56.80
17415;DHT22;8825;48.086;16.426;2023-05-07T19:08:47;14.10;56.60
17415;DHT22;8825;48.086;16.426;2023-05-07T19:11:15;14.00;56.40
17415;DHT22;8825;48.086;16.426;2023-05-07T19:13:42;13.90;56.40
17415;DHT22;8825;48.086;16.426;2023-05-07T19:16:10;13.90;56.40
17415;DHT22;8825;48.086;16.426;2023-05-07T19:18:39;13.80;56.50
17415;DHT22;8825;48.086;16.426;2023-05-07T19:21:07;13.70;56.50
17415;DHT22;8825;48.086;16.426;2023-05-07T19:23:35;13.70;56.60
17415;DHT22;8825;48.086;16.426;2023-05-07T19:26:04;13.70;56.60
17415;DHT22;8825;48.086;16.426;2023-05-07T19:28:32;13.60;56.80
17415;DHT22;8825;48.086;16.426;2023-05-07T19:30:59;13.60;57.00
17415;DHT22;8825;48.086;16.426;2023-05-07T19:33:27;13.50;56.90
17415;DHT22;8825;48.086;16.426;2023-05-07T19:35:56;13.50;56.90
17415;DHT22;8825;48.086;16.426;2023-05-07T19:38:27;13.40;57.00
17415;DHT22;8825;48.086;16.426;2023-05-07T19:40:55;13.30;57.10
17415;DHT22;8825;48.086;16.426;2023-05-07T19:43:43;13.30;57.20
17415;DHT22;8825;48.086;16.426;2023-05-07T19:46:11;13.20;57.00
17415;DHT22;8825;48.086;16.426;2023-05-07T19:48:39;13.10;57.50
17415;DHT22;8825;48.086;16.426;2023-05-07T19:51:06;13.00;57.70
17415;DHT22;8825;48.086;16.426;2023-05-07T19:53:34;13.00;57.80
17415;DHT22;8825;48.086;16.426;2023-05-07T19:56:07;13.00;58.00
17415;DHT22;8825;48.086;16.426;2023-05-07T19:58:36;12.90;58.20
17415;DHT22;8825;48.086;16.426;2023-05-07T20:01:04;12.90;58.40
17415;DHT22;8825;48.086;16.426;2023-05-07T20:03:33;12.80;58.60
17415;DHT22;8825;48.086;16.426;2023-05-07T20:06:02;12.80;58.70
17415;DHT22;8825;48.086;16.426;2023-05-07T20:08:29;12.80;58.80
17415;DHT22;8825;48.086;16.426;2023-05-07T20:10:57;12.70;59.00
17415;DHT22;8825;48.086;16.426;2023-05-07T20:13:25;12.70;59.20
17415;DHT22;8825;48.086;16.426;2023-05-07T20:15:57;12.70;59.10
17415;DHT22;8825;48.086;16.426;2023-05-07T20:18:26;12.70;59.20
17415;DHT22;8825;48.086;16.426;2023-05-07T20:20:54;12.70;59.30
17415;DHT22;8825;48.086;16.426;2023-05-07T20:23:22;12.70;59.40
17415;DHT22;8825;48.086;16.426;2023-05-07T20:25:50;12.70;59.50
17415;DHT22;8825;48.086;16.426;2023-05-07T20:28:18;12.70;59.40
17415;DHT22;8825;48.086;16.426;2023-05-07T20:30:45;12.70;59.40
17415;DHT22;8825;48.086;16.426;2023-05-07T20:33:13;12.70;59.40
17415;DHT22;8825;48.086;16.426;2023-05-07T20:35:40;12.80;59.40
17415;DHT22;8825;48.086;16.426;2023-05-07T20:38:08;12.70;59.40
17415;DHT22;8825;48.086;16.426;2023-05-07T20:40:36;12.70;59.40
17415;DHT22;8825;48.086;16.426;2023-05-07T20:43:04;12.70;59.50
17415;DHT22;8825;48.086;16.426;2023-05-07T20:45:32;12.70;59.50
17415;DHT22;8825;48.086;16.426;2023-05-07T20:48:00;12.60;59.50
17415;DHT22;8825;48.086;16.426;2023-05-07T20:50:27;12.60;59.40
17415;DHT22;8825;48.086;16.426;2023-05-07T20:52:55;12.60;59.40
17415;DHT22;8825;48.086;16.426;2023-05-07T20:55:23;12.50;59.30
17415;DHT22;8825;48.086;16.426;2023-05-07T20:57:50;12.50;59.30
17415;DHT22;8825;48.086;16.426;2023-05-07T21:00:18;12.50;59.30
17415;DHT22;8825;48.086;16.426;2023-05-07T21:02:46;12.50;59.30
17415;DHT22;8825;48.086;16.426;2023-05-07T21:05:13;12.40;59.30
17415;DHT22;8825;48.086;16.426;2023-05-07T21:07:41;12.40;59.30
17415;DHT22;8825;48.086;16.426;2023-05-07T21:10:09;12.40;59.40
17415;DHT22;8825;48.086;16.426;2023-05-07T21:12:36;12.40;59.30
17415;DHT22;8825;48.086;16.426;2023-05-07T21:15:06;12.40;59.30
17415;DHT22;8825;48.086;16.426;2023-05-07T21:17:33;12.30;59.30
17415;DHT22;8825;48.086;16.426;2023-05-07T21:20:01;12.30;59.30
17415;DHT22;8825;48.086;16.426;2023-05-07T21:22:29;12.30;59.30
17415;DHT22;8825;48.086;16.426;2023-05-07T21:24:57;12.20;59.20
17415;DHT22;8825;48.086;16.426;2023-05-07T21:27:29;12.20;59.30
17415;DHT22;8825;48.086;16.426;2023-05-07T21:29:56;12.20;59.30
17415;DHT22;8825;48.086;16.426;2023-05-07T21:32:25;12.20;59.20
17415;DHT22;8825;48.086;16.426;2023-05-07T21:34:53;12.20;59.30
17415;DHT22;8825;48.086;16.426;2023-05-07T21:37:20;12.10;59.30
17415;DHT22;8825;48.086;16.426;2023-05-07T21:39:48;12.10;59.30
17415;DHT22;8825;48.086;16.426;2023-05-07T21:42:15;12.10;59.40
17415;DHT22;8825;48.086;16.426;2023-05-07T21:44:43;12.10;59.40
17415;DHT22;8825;48.086;16.426;2023-05-07T21:47:10;12.00;59.40
17415;DHT22;8825;48.086;16.426;2023-05-07T21:49:38;12.00;59.50
17415;DHT22;8825;48.086;16.426;2023-05-07T21:52:13;12.00;59.50
17415;DHT22;8825;48.086;16.426;2023-05-07T21:54:41;11.90;59.60